Latest Coastal Weather Observations for Hogan Island

IDT60701

Issued at 5:32 am EDT Tuesday 21 January 2020 (issued every 10 minutes, with the page automatically refreshed every 10 minutes)

About coastal observations | Map of coastal stations | Coastal observations for TAS | Marine services | Other Formats
Station Details ID: 200838 Name: HOGAN ISLAND Lat: -39.22 Lon: 146.98 Height: 116.0 m
Data from the previous 72 hours. | See also: Recent months at Hogan Island
Date/Time
EDT
Wind Sea
Height
m
Swell Vis
km
Cloud Weather Temp
°C
Press
hPa
Rain since
9am
mm
Dir  Spd
kts
Gust
kts
Height
m
Period
s
Dir
21/05:30am W 22 25 - - - - - - - 14.8 1004.6 0.0
21/05:00am W 20 22 - - - - - - - 14.8 1004.4 0.0
21/04:30am W 17 19 - - - - - - - 15.0 1004.3 0.0
21/04:00am W 16 17 - - - - - - - 15.1 1004.2 0.0
21/03:30am W 16 19 - - - - - - - 15.2 1004.4 0.0
21/03:00am W 18 20 - - - - - - - 15.1 1004.1 0.0
21/02:30am W 18 21 - - - - - - - 15.3 1004.2 0.0
21/02:00am W 15 17 - - - - - - - 15.5 1004.4 0.0
21/01:30am W 12 14 - - - - - - - 15.6 1004.9 0.0
21/01:00am W 11 13 - - - - - - - 15.7 1005.2 0.0
21/12:30am WSW 11 13 - - - - - - - 15.7 1005.2 0.0
21/12:00am W 11 13 - - - - - - - 15.8 1005.0 0.0
 
Date/Time
EDT
Wind Sea
Height
m
Swell Vis
km
Cloud Weather Temp
°C
Press
hPa
Rain since
9am
mm
Dir  Spd
kts
Gust
kts
Height
m
Period
s
Dir
20/11:30pm WSW 11 13 - - - - - - - 15.8 1005.1 0.0
20/11:00pm WSW 11 13 - - - - - - - 15.8 1004.9 0.0
20/10:30pm SW 10 11 - - - - - - - 15.9 1005.0 0.0
20/10:00pm SW 9 14 - - - - - - - 15.8 1005.1 0.0
20/09:30pm SSW 9 12 - - - - - - - 15.9 1005.0 0.0
20/09:00pm SSW 12 14 - - - - - - - 16.0 1004.5 0.0
20/08:30pm SSW 10 14 - - - - - - - 16.1 1004.2 0.0
20/08:00pm S 12 16 - - - - - - - 16.2 1003.8 0.0
20/07:30pm S 12 16 - - - - - - - 16.7 1003.5 0.0
20/07:00pm S 15 18 - - - - - - - 17.3 1003.2 0.0
20/06:30pm SSE 19 22 - - - - - - - 17.0 1003.0 0.0
20/06:00pm SSE 18 21 - - - - - - - 17.3 1002.7 0.0
20/05:30pm SSE 19 22 - - - - - - - 18.3 1003.5 0.0
20/05:00pm SSE 19 24 - - - - - - - 17.1 1003.6 0.0
20/04:30pm SSE 19 22 - - - - - - - 17.1 1003.5 0.0
20/04:00pm SSE 20 25 - - - - - - - 17.2 1003.5 0.0
20/03:30pm SSE 22 27 - - - - - - - 18.1 1003.4 0.0
20/03:00pm SSE 23 27 - - - - - - - 18.5 1003.2 0.0
20/02:30pm SSE 21 26 - - - - - - - 18.5 1003.6 0.0
20/02:00pm SSE 23 27 - - - - - - - 18.6 1003.8 0.0
20/01:30pm SSE 20 24 - - - - - - - 19.5 1004.2 0.0
20/01:00pm SSE 19 22 - - - - - - - 18.9 1004.6 0.0
20/12:30pm SSE 19 22 - - - - - - - 17.5 1004.8 0.0
20/12:00pm SSE 21 25 - - - - - - - 16.6 1004.8 0.0
20/11:30am SSE 19 23 - - - - - - - 16.4 1005.1 0.0
20/11:00am SE 19 24 - - - - - - - 16.2 1005.0 0.0
20/10:30am SSE 19 22 - - - - - - - 15.9 1005.0 0.0
20/10:00am SE 19 23 - - - - - - - 15.9 1005.1 0.0
20/09:30am SE 17 20 - - - - - - - 16.1 1005.3 0.0
20/09:00am SE 15 18 - - - - - - - 15.9 1005.2 6.4
20/08:30am ESE 19 22 - - - - - - - 15.5 1005.6 6.4
20/08:00am ESE 21 26 - - - - - - - 15.5 1005.4 6.4
20/07:30am ESE 20 24 - - - - - - - 15.5 1005.3 6.4
20/07:00am ESE 24 27 - - - - - - - 15.5 1005.1 6.4
20/06:30am SE 25 29 - - - - - - - 15.5 1004.7 6.2
20/06:00am ESE 25 29 - - - - - - - 15.6 1004.8 6.0
20/05:30am ESE 24 28 - - - - - - - 15.5 1004.8 5.8
20/05:00am SE 20 23 - - - - - - - 15.6 1005.0 5.8
20/04:30am ESE 23 27 - - - - - - - 15.7 1005.1 5.8
20/04:00am ESE 24 27 - - - - - - - 15.7 1005.5 5.6
20/03:30am E 21 25 - - - - - - - 15.8 1006.5 2.8
20/03:00am ESE 23 27 - - - - - - - 15.8 1006.2 1.4
20/02:30am ESE 22 25 - - - - - - - 15.9 1006.9 1.2
20/02:00am ESE 24 27 - - - - - - - 15.9 1007.1 1.0
20/01:30am E 28 32 - - - - - - - 15.9 1007.1 0.8
20/01:00am ESE 29 33 - - - - - - - 15.9 1006.6 0.8
20/12:30am ESE 28 34 - - - - - - - 16.0 1006.7 0.8
20/12:00am ESE 28 32 - - - - - - - 16.0 1006.4 0.8
 
Date/Time
EDT
Wind Sea
Height
m
Swell Vis
km
Cloud Weather Temp
°C
Press
hPa
Rain since
9am
mm
Dir  Spd
kts
Gust
kts
Height
m
Period
s
Dir
19/11:30pm ESE 26 30 - - - - - - - 15.9 1006.9 0.8
19/11:00pm ESE 26 32 - - - - - - - 16.0 1007.4 0.8
19/10:30pm ESE 26 30 - - - - - - - 16.0 1007.8 0.8
19/10:00pm E 26 29 - - - - - - - 16.1 1007.9 0.8
19/09:30pm E 24 28 - - - - - - - 16.1 1008.3 0.8
19/09:00pm E 23 27 - - - - - - - 16.3 1008.1 0.8
19/08:30pm E 23 27 - - - - - - - 16.2 1008.1 0.8
19/08:00pm E 25 29 - - - - - - - 16.3 1007.4 0.8
19/07:30pm E 27 31 - - - - - - - 16.3 1006.9 0.8
19/07:00pm E 24 28 - - - - - - - 16.4 1007.1 0.8
19/06:30pm E 24 28 - - - - - - - 16.6 1006.9 0.8
19/06:00pm E 21 24 - - - - - - - 16.7 1007.0 0.8
19/05:30pm E 21 25 - - - - - - - 17.0 1007.0 0.8
19/05:00pm E 23 28 - - - - - - - 17.2 1007.0 0.8
19/04:30pm E 27 30 - - - - - - - 17.3 1006.7 0.8
19/04:00pm ESE 27 30 - - - - - - - 17.3 1006.6 0.8
19/03:30pm ESE 26 32 - - - - - - - 17.4 1006.8 0.8
19/03:00pm ESE 25 31 - - - - - - - 17.0 1006.9 0.8
19/02:30pm E 28 37 - - - - - - - 16.8 1007.3 0.8
19/02:26pm E 32 42 - - - - - - - 16.8 1007.1 0.8
19/02:00pm ESE 32 35 - - - - - - - 16.2 1006.6 0.2
19/01:30pm E 24 28 - - - - - - - 16.7 1008.1 0.0
19/01:00pm E 20 25 - - - - - - - 17.7 1009.0 0.0
19/12:30pm E 23 28 - - - - - - - 17.7 1008.7 0.0
19/12:00pm E 24 27 - - - - - - - 17.4 1008.7 0.0
19/11:30am E 23 25 - - - - - - - 17.1 1008.9 0.0
19/11:00am E 24 28 - - - - - - - 17.2 1008.9 0.0
19/10:30am E 25 28 - - - - - - - 16.9 1008.9 0.0
19/10:00am E 25 28 - - - - - - - 16.9 1008.9 0.0
19/09:30am E 25 28 - - - - - - - 16.7 1009.1 0.0
19/09:00am E 23 28 - - - - - - - 16.5 1009.1 0.0
19/08:30am E 25 30 - - - - - - - 16.3 1008.9 0.0
19/08:00am E 26 34 - - - - - - - 16.2 1008.5 0.0
19/07:30am E 27 30 - - - - - - - 16.1 1008.3 0.0
19/07:00am E 29 33 - - - - - - - 16.0 1008.2 0.0
19/06:30am E 29 33 - - - - - - - 15.9 1007.8 0.0
19/06:00am E 30 35 - - - - - - - 15.8 1007.4 0.0
19/05:30am E 29 33 - - - - - - - 15.8 1007.8 0.0
19/05:00am E 31 37 - - - - - - - 15.8 1007.5 0.0
19/04:30am E 32 37 - - - - - - - 15.7 1007.1 0.0
19/04:00am E 31 35 - - - - - - - 15.7 1007.7 0.0
19/03:30am E 31 37 - - - - - - - 15.5 1007.7 0.0
19/03:00am E 30 34 - - - - - - - 15.5 1007.6 0.0
19/02:30am E 31 35 - - - - - - - 15.5 1008.2 0.0
19/02:00am E 29 34 - - - - - - - 15.5 1008.5 0.0
19/01:30am E 30 34 - - - - - - - 15.5 1008.7 0.0
19/01:00am E 29 34 - - - - - - - 15.5 1009.2 0.0
19/12:30am E 33 38 - - - - - - - 15.5 1009.0 0.0
19/12:00am E 31 37 - - - - - - - 15.6 1009.3 0.0
 
Date/Time
EDT
Wind Sea
Height
m
Swell Vis
km
Cloud Weather Temp
°C
Press
hPa
Rain since
9am
mm
Dir  Spd
kts
Gust
kts
Height
m
Period
s
Dir
18/11:30pm E 31 35 - - - - - - - 15.6 1009.9 0.0
18/11:00pm E 28 33 - - - - - - - 15.7 1010.3 0.0
18/10:30pm E 30 35 - - - - - - - 15.7 1010.3 0.0
18/10:00pm E 28 31 - - - - - - - 15.7 1010.6 0.0
18/09:30pm E 28 33 - - - - - - - 15.8 1010.4 0.0
18/09:00pm E 27 33 - - - - - - - 15.7 1010.2 0.0
18/08:30pm E 26 29 - - - - - - - 15.9 1010.5 0.0
18/08:00pm E 27 31 - - - - - - - 15.9 1010.4 0.0
18/07:30pm E 28 33 - - - - - - - 16.1 1010.3 0.0
18/07:00pm E 27 32 - - - - - - - 16.1 1010.4 0.0
18/06:30pm E 29 33 - - - - - - - 16.2 1010.1 0.0
18/06:00pm E 29 33 - - - - - - - 16.7 1010.0 0.0
18/05:30pm E 29 33 - - - - - - - 17.1 1010.5 0.0
18/05:00pm E 29 34 - - - - - - - 17.1 1010.7 0.0
18/04:30pm E 27 32 - - - - - - - 17.0 1011.5 0.0
18/04:00pm E 26 31 - - - - - - - 17.2 1011.8 0.0
18/03:30pm E 29 34 - - - - - - - 17.9 1011.7 0.0
18/03:00pm E 29 34 - - - - - - - 17.5 1011.5 0.0
18/02:30pm E 30 34 - - - - - - - 18.3 1011.8 0.0
18/02:00pm E 30 35 - - - - - - - 18.2 1012.0 0.0
18/01:30pm E 32 37 - - - - - - - 17.4 1012.5 0.0
18/01:00pm E 32 37 - - - - - - - 16.8 1012.9 0.0
18/12:30pm E 30 36 - - - - - - - 16.9 1013.2 0.0
18/12:00pm E 31 37 - - - - - - - 16.4 1013.1 0.0
18/11:30am E 29 34 - - - - - - - 16.0 1013.7 0.0
18/11:00am E 31 35 - - - - - - - 16.1 1013.7 0.0
18/10:30am E 32 37 - - - - - - - 16.1 1013.7 0.0
18/10:00am E 30 37 - - - - - - - 15.9 1014.1 0.0
18/09:30am E 31 36 - - - - - - - 15.6 1014.3 0.0
18/09:00am E 31 36 - - - - - - - 15.6 1014.0 0.2
18/08:30am E 31 35 - - - - - - - 15.5 1014.1 0.2
18/08:00am E 32 37 - - - - - - - 15.3 1013.8 0.2
18/07:30am E 32 37 - - - - - - - 15.2 1013.8 0.2
18/07:00am E 30 35 - - - - - - - 15.0 1013.6 0.2
18/06:30am E 31 35 - - - - - - - 14.9 1013.4 0.2
18/06:00am E 30 35 - - - - - - - 14.9 1013.3 0.2

Other formats

Comma delimited format used in spreadsheet applications
http://www.bom.gov.au/fwo/IDT60701/IDT60701.94949.axf

JavaScript Object Notation format (JSON) in row-major order
http://www.bom.gov.au/fwo/IDT60701/IDT60701.94949.json

Data quality

Most of these data are generated automatically and are frequently updated. Quality checks on data are not normally performed. It is possible for incorrect values to appear. Refer to information at About Latest Weather Observations and please check the disclaimer before using these data.